createdAt,value
2017-07-14T00:00:13.942Z,58.39
2017-07-14T00:00:40.063Z,58.39
2017-07-14T00:01:06.189Z,58.39
2017-07-14T00:01:33.700Z,58.87
2017-07-14T00:02:01.617Z,58.39
2017-07-14T00:02:29.325Z,58.29
2017-07-14T00:02:55.447Z,58.1
2017-07-14T00:03:23.489Z,58.29
2017-07-14T00:03:51.177Z,58.48
2017-07-14T00:04:19.349Z,58.29
2017-07-14T00:04:46.128Z,58.2
2017-07-14T00:05:12.668Z,58.77
2017-07-14T00:05:40.054Z,58.2
2017-07-14T00:06:07.703Z,58.77
2017-07-14T00:06:34.731Z,58.67
2017-07-14T00:07:02.692Z,58.96
2017-07-14T00:07:29.389Z,58.67
2017-07-14T00:07:55.511Z,58.67
2017-07-14T00:08:21.631Z,58.96
2017-07-14T00:08:47.755Z,59.06
2017-07-14T00:09:13.879Z,58.77
2017-07-14T00:09:40.002Z,58.58
2017-07-14T00:10:06.125Z,58.77
2017-07-14T00:10:32.245Z,58.58
2017-07-14T00:10:58.367Z,58.39
2017-07-14T00:11:24.490Z,58.67
2017-07-14T00:11:50.613Z,58.8
2017-07-14T00:12:16.733Z,59.06
2017-07-14T00:12:42.855Z,58.77
2017-07-14T00:13:08.978Z,58.48
2017-07-14T00:13:35.100Z,58.96
2017-07-14T00:14:01.222Z,58.2
2017-07-14T00:14:27.347Z,58.67
2017-07-14T00:14:53.468Z,58.58
2017-07-14T00:15:19.590Z,58.29
2017-07-14T00:15:45.713Z,58.58
2017-07-14T00:16:11.837Z,58.29
2017-07-14T00:16:37.977Z,58.48
2017-07-14T00:17:04.098Z,58.1
2017-07-14T00:17:30.222Z,58.2
2017-07-14T00:17:56.344Z,58.39
2017-07-14T00:18:22.467Z,58.48
2017-07-14T00:18:48.610Z,58.2
2017-07-14T00:19:14.731Z,58.29
2017-07-14T00:19:40.855Z,58.58
2017-07-14T00:20:06.977Z,58.29
2017-07-14T00:20:33.098Z,58.1
2017-07-14T00:20:59.222Z,57.71
2017-07-14T00:21:25.344Z,58.2
2017-07-14T00:21:51.466Z,58.87
2017-07-14T00:22:17.588Z,58.58
2017-07-14T00:22:43.713Z,58.77
2017-07-14T00:23:09.831Z,58.87
2017-07-14T00:23:35.953Z,58.77
2017-07-14T00:24:02.075Z,58.58
2017-07-14T00:24:28.195Z,58.77
2017-07-14T00:24:54.319Z,58.77
2017-07-14T00:25:20.440Z,58.77
2017-07-14T00:25:46.563Z,58.77
2017-07-14T00:26:12.684Z,58.67
2017-07-14T00:26:38.807Z,58.87
2017-07-14T00:27:04.930Z,58.87
2017-07-14T00:27:31.049Z,59.34
2017-07-14T00:27:57.171Z,59.44
2017-07-14T00:28:23.295Z,59.64
2017-07-14T00:28:49.416Z,59.73
2017-07-14T00:29:15.537Z,59.73
2017-07-14T00:29:41.662Z,59.34
2017-07-14T00:30:07.782Z,59.64
2017-07-14T00:30:33.928Z,59.73
2017-07-14T00:31:00.050Z,59.44
2017-07-14T00:31:26.192Z,59.64
2017-07-14T00:31:52.316Z,59.83
2017-07-14T00:32:18.437Z,59.64
2017-07-14T00:32:44.563Z,59.73
2017-07-14T00:33:10.686Z,59.25
2017-07-14T00:33:36.806Z,59.54
2017-07-14T00:34:02.929Z,59.83
2017-07-14T00:34:29.052Z,59.83
2017-07-14T00:34:55.174Z,59.73
2017-07-14T00:35:21.297Z,60.31
2017-07-14T00:35:47.419Z,59.73
2017-07-14T00:36:13.540Z,60.21
2017-07-14T00:36:39.663Z,59.73
2017-07-14T00:37:05.785Z,59.83
2017-07-14T00:37:31.907Z,59.83
2017-07-14T00:37:58.030Z,59.73
2017-07-14T00:38:24.171Z,59.34
2017-07-14T00:38:50.294Z,59.83
2017-07-14T00:39:16.416Z,60.4
2017-07-14T00:39:42.539Z,60.08
2017-07-14T00:40:08.661Z,60.28
2017-07-14T00:40:34.783Z,60.6
2017-07-14T00:41:00.907Z,60.11
2017-07-14T00:41:27.030Z,59.54
2017-07-14T00:41:53.153Z,59.83
2017-07-14T00:42:19.274Z,59.73
2017-07-14T00:42:45.394Z,60.11
2017-07-14T00:43:11.516Z,59.92
2017-07-14T00:43:37.637Z,59.64
2017-07-14T00:44:03.766Z,59.44
2017-07-14T00:44:29.883Z,59.44
2017-07-14T00:44:56.006Z,59.34
2017-07-14T00:45:22.129Z,59.34
2017-07-14T00:45:48.250Z,59.34
2017-07-14T00:46:14.371Z,59.44
2017-07-14T00:46:40.492Z,59.06
2017-07-14T00:47:06.613Z,59.06
2017-07-14T00:47:32.735Z,59.7
2017-07-14T00:47:58.861Z,59.54
2017-07-14T00:48:24.983Z,59.7
2017-07-14T00:48:51.104Z,59.41
2017-07-14T00:49:17.225Z,59.51
2017-07-14T00:49:43.347Z,59.73
2017-07-14T00:50:09.471Z,59.89
2017-07-14T00:50:35.593Z,60.4
2017-07-14T00:51:01.715Z,60.69
2017-07-14T00:51:27.835Z,60.85
2017-07-14T00:51:54.010Z,61.17
2017-07-14T00:52:20.122Z,61.36
2017-07-14T00:52:46.243Z,61.46
2017-07-14T00:53:12.365Z,61.36
2017-07-14T00:53:38.486Z,60.98
2017-07-14T00:54:04.606Z,61.08
2017-07-14T00:54:30.729Z,61.36
2017-07-14T00:54:56.853Z,61.27
2017-07-14T00:55:22.974Z,61.08
2017-07-14T00:55:49.098Z,61.08
2017-07-14T00:56:15.220Z,61.24
2017-07-14T00:56:41.343Z,61.17
2017-07-14T00:57:07.464Z,61.08
2017-07-14T00:57:33.585Z,60.98
2017-07-14T00:57:59.709Z,60.5
2017-07-14T00:58:25.832Z,60.78
2017-07-14T00:58:51.953Z,60.88
2017-07-14T00:59:18.075Z,60.88
2017-07-14T00:59:44.216Z,61.33
2017-07-14T01:00:10.340Z,61.24
2017-07-14T01:00:36.463Z,61.24
2017-07-14T01:01:02.587Z,60.95
2017-07-14T01:01:28.711Z,62.58
2017-07-14T01:01:54.832Z,62.77
2017-07-14T01:02:20.953Z,62.39
2017-07-14T01:02:47.073Z,63.06
2017-07-14T01:03:13.195Z,62.96
2017-07-14T01:03:39.317Z,62.87
2017-07-14T01:04:05.446Z,63.22
2017-07-14T01:04:31.568Z,63.16
2017-07-14T01:04:57.689Z,63.35
2017-07-14T01:05:23.815Z,63.35
2017-07-14T01:05:49.936Z,63.16
2017-07-14T01:06:16.057Z,63.16
2017-07-14T01:06:42.178Z,63.89
2017-07-14T01:07:08.300Z,63.42
2017-07-14T01:07:34.421Z,63.99
2017-07-14T01:08:00.562Z,63.89
2017-07-14T01:08:26.687Z,64.12
2017-07-14T01:08:52.824Z,63.51
2017-07-14T01:09:18.971Z,63.89
2017-07-14T01:09:45.102Z,63.89
2017-07-14T01:10:11.240Z,64.47
2017-07-14T01:10:37.383Z,65.14
2017-07-14T01:11:03.517Z,65.05
2017-07-14T01:11:29.646Z,65.23
2017-07-14T01:11:55.789Z,65.23
2017-07-14T01:12:21.928Z,65.33
2017-07-14T01:12:48.070Z,65.43
2017-07-14T01:13:14.201Z,66.19
2017-07-14T01:13:40.338Z,66.19
2017-07-14T01:14:06.479Z,66.29
2017-07-14T01:14:32.638Z,65.91
2017-07-14T01:14:58.772Z,66.1
2017-07-14T01:15:24.919Z,65.81
2017-07-14T01:15:51.057Z,66.1
2017-07-14T01:16:17.186Z,66
2017-07-14T01:16:43.334Z,65.91
2017-07-14T01:17:09.471Z,66.49
2017-07-14T01:17:35.611Z,66.29
2017-07-14T01:18:01.741Z,66.39
2017-07-14T01:18:27.874Z,66.29
2017-07-14T01:18:54.021Z,65.91
2017-07-14T01:19:20.159Z,66.49
2017-07-14T01:19:46.295Z,66.39
2017-07-14T01:20:12.435Z,66.39
2017-07-14T01:20:38.573Z,66.39
2017-07-14T01:21:04.707Z,66.58
2017-07-14T01:21:30.854Z,66.67
2017-07-14T01:21:56.999Z,66.39
2017-07-14T01:22:23.127Z,66.77
2017-07-14T01:22:49.263Z,66.58
2017-07-14T01:23:15.393Z,66.77
2017-07-14T01:23:41.541Z,66.86
2017-07-14T01:24:07.679Z,66.39
2017-07-14T01:24:33.811Z,66.29
2017-07-14T01:24:59.952Z,66.58
2017-07-14T01:25:26.102Z,66.67
2017-07-14T01:25:52.230Z,66.77
2017-07-14T01:26:18.369Z,66.77
2017-07-14T01:26:44.513Z,67.16
2017-07-14T01:27:10.640Z,66.86
2017-07-14T01:27:36.774Z,66.77
2017-07-14T01:28:02.924Z,67.25
2017-07-14T01:28:29.059Z,66.49
2017-07-14T01:28:55.200Z,66.29
2017-07-14T01:29:21.330Z,66.29
2017-07-14T01:29:47.466Z,66.96
2017-07-14T01:30:13.614Z,66.96
2017-07-14T01:30:39.744Z,67.06
2017-07-14T01:31:05.882Z,67.06
2017-07-14T01:31:32.024Z,66.96
2017-07-14T01:31:58.159Z,66.96
2017-07-14T01:32:24.286Z,67.06
2017-07-14T01:32:50.436Z,67.16
2017-07-14T01:33:16.570Z,66.86
2017-07-14T01:33:42.699Z,67.35
2017-07-14T01:34:08.847Z,67.16
2017-07-14T01:34:34.984Z,67.16
2017-07-14T01:35:01.129Z,66.96
2017-07-14T01:35:27.261Z,66.77
2017-07-14T01:35:53.392Z,66.86
2017-07-14T01:36:19.540Z,66.67
2017-07-14T01:36:45.677Z,66.58
2017-07-14T01:37:11.803Z,66.77
2017-07-14T01:37:37.948Z,66.58
2017-07-14T01:38:04.085Z,67.25
2017-07-14T01:38:30.217Z,66.96
2017-07-14T01:38:56.359Z,67.16
2017-07-14T01:39:22.510Z,66.86
2017-07-14T01:39:48.640Z,67.06
2017-07-14T01:40:14.778Z,66.96
2017-07-14T01:40:40.907Z,66.49
2017-07-14T01:41:07.054Z,67.25
2017-07-14T01:41:33.214Z,66.96
2017-07-14T01:41:59.324Z,66.96
2017-07-14T01:42:25.465Z,67.06
2017-07-14T01:42:51.630Z,66.96
2017-07-14T01:43:17.760Z,67.25
2017-07-14T01:43:43.896Z,66.86
2017-07-14T01:44:10.042Z,67.06
2017-07-14T01:44:36.172Z,67.06
2017-07-14T01:45:02.310Z,66.96
2017-07-14T01:45:28.455Z,67.06
2017-07-14T01:45:54.586Z,66.96
2017-07-14T01:46:20.715Z,67.73
2017-07-14T01:46:46.865Z,67.73
2017-07-14T01:47:13.000Z,67.54
2017-07-14T01:47:39.132Z,67.92
2017-07-14T01:48:05.277Z,67.44
2017-07-14T01:48:31.414Z,67.54
2017-07-14T01:48:57.546Z,67.54
2017-07-14T01:49:23.690Z,68.21
2017-07-14T01:49:49.833Z,68.12
2017-07-14T01:50:15.961Z,68.21
2017-07-14T01:50:42.098Z,68.5
2017-07-14T01:51:08.233Z,68.59
2017-07-14T01:51:34.377Z,68.59
2017-07-14T01:52:00.522Z,68.79
2017-07-14T01:52:26.650Z,69.07
2017-07-14T01:52:52.792Z,68.79
2017-07-14T01:53:18.937Z,69.17
2017-07-14T01:53:45.066Z,68.79
2017-07-14T01:54:11.204Z,69.17
2017-07-14T01:54:37.348Z,69.13
2017-07-14T01:55:03.478Z,69.07
2017-07-14T01:55:29.617Z,69.56
2017-07-14T01:55:55.760Z,69.17
2017-07-14T01:56:21.892Z,69.33
2017-07-14T01:56:48.039Z,69.26
2017-07-14T01:57:14.163Z,69.52
2017-07-14T01:57:40.306Z,69.26
2017-07-14T01:58:06.448Z,69.26
2017-07-14T01:58:32.578Z,69.36
2017-07-14T01:58:58.713Z,69.84
2017-07-14T01:59:24.859Z,69.74
2017-07-14T01:59:50.992Z,70
2017-07-14T02:00:17.122Z,69.84
2017-07-14T02:00:43.271Z,69.74
2017-07-14T02:01:09.407Z,69.93
2017-07-14T02:01:35.539Z,70.23
2017-07-14T02:02:01.682Z,69.71
2017-07-14T02:02:27.817Z,69.74
2017-07-14T02:02:53.963Z,70.23
2017-07-14T02:03:20.097Z,70.23
2017-07-14T02:03:46.225Z,69.84
2017-07-14T02:04:12.375Z,70.32
2017-07-14T02:04:38.509Z,70.32
2017-07-14T02:05:04.639Z,69.74
2017-07-14T02:05:30.784Z,70.42
2017-07-14T02:05:56.927Z,70.32
2017-07-14T02:06:23.056Z,70.42
2017-07-14T02:06:49.198Z,70.29
2017-07-14T02:07:15.341Z,69.65
2017-07-14T02:07:41.472Z,69.84
2017-07-14T02:08:07.612Z,70.13
2017-07-14T02:08:33.757Z,70
2017-07-14T02:08:59.887Z,69.93
2017-07-14T02:09:26.024Z,69.93
2017-07-14T02:09:52.169Z,69.84
2017-07-14T02:10:18.499Z,69.84
2017-07-14T02:10:44.629Z,70.13
2017-07-14T02:11:10.776Z,70.03
2017-07-14T02:11:36.914Z,70.19
2017-07-14T02:12:03.044Z,69.9
2017-07-14T02:12:29.190Z,70.19
2017-07-14T02:12:55.925Z,70.48
2017-07-14T02:13:22.046Z,69.56
2017-07-14T02:13:48.194Z,69.93
2017-07-14T02:14:14.329Z,69.9
2017-07-14T02:14:40.462Z,69.93
2017-07-14T02:15:06.587Z,69.46
2017-07-14T02:15:32.718Z,69.65
2017-07-14T02:15:58.832Z,69.74
2017-07-14T02:16:24.955Z,69.84
2017-07-14T02:16:51.086Z,69.74
2017-07-14T02:17:17.205Z,69.84
2017-07-14T02:17:43.320Z,69.26
2017-07-14T02:18:09.454Z,69.17
2017-07-14T02:18:35.575Z,69.26
2017-07-14T02:19:01.725Z,69.65
2017-07-14T02:19:27.839Z,69.71
2017-07-14T02:19:53.961Z,69.93
2017-07-14T02:20:20.091Z,69.9
2017-07-14T02:20:46.210Z,70
2017-07-14T02:21:12.326Z,69.71
2017-07-14T02:21:38.464Z,69.9
2017-07-14T02:22:04.583Z,69.56
2017-07-14T02:22:30.698Z,69.65
2017-07-14T02:22:56.830Z,69.71
2017-07-14T02:23:22.954Z,69.26
2017-07-14T02:23:49.070Z,69.26
2017-07-14T02:24:15.199Z,69.17
2017-07-14T02:24:41.315Z,69.36
2017-07-14T02:25:07.447Z,69.26
2017-07-14T02:25:33.568Z,69.36
2017-07-14T02:25:59.684Z,69.56
2017-07-14T02:26:25.815Z,69.36
2017-07-14T02:26:51.942Z,69.46
2017-07-14T02:27:18.058Z,69.56
2017-07-14T02:27:44.187Z,68.98
2017-07-14T02:28:10.319Z,69.07
2017-07-14T02:28:36.431Z,69.04
2017-07-14T02:29:02.555Z,69.46
2017-07-14T02:29:28.686Z,69.46
2017-07-14T02:29:54.801Z,68.98
2017-07-14T02:30:20.923Z,69.46
2017-07-14T02:30:47.054Z,69.36
2017-07-14T02:31:13.172Z,69.26
2017-07-14T02:31:39.286Z,69.46
2017-07-14T02:32:05.422Z,69.56
2017-07-14T02:32:31.541Z,69.46
2017-07-14T02:32:57.681Z,68.98
2017-07-14T02:33:23.808Z,68.88
2017-07-14T02:33:49.933Z,69.07
2017-07-14T02:34:16.049Z,69.17
2017-07-14T02:34:42.178Z,68.88
2017-07-14T02:35:08.332Z,69.07
2017-07-14T02:35:34.451Z,69.26
2017-07-14T02:36:00.595Z,68.95
2017-07-14T02:36:26.711Z,68.88
2017-07-14T02:36:52.844Z,69.46
2017-07-14T02:37:18.992Z,69.26
2017-07-14T02:37:45.109Z,69.13
2017-07-14T02:38:11.238Z,69.13
2017-07-14T02:38:37.392Z,69.33
2017-07-14T02:39:03.503Z,69.62
2017-07-14T02:39:29.630Z,70.19
2017-07-14T02:39:55.785Z,70
2017-07-14T02:40:21.899Z,70.38
2017-07-14T02:40:48.023Z,70.09
2017-07-14T02:41:14.145Z,70.19
2017-07-14T02:41:40.276Z,70.92
2017-07-14T02:42:06.406Z,71.15
2017-07-14T02:42:32.517Z,70.64
2017-07-14T02:42:58.665Z,70.92
2017-07-14T02:43:24.798Z,70.64
2017-07-14T02:43:50.913Z,71.11
2017-07-14T02:44:17.035Z,70.83
2017-07-14T02:44:43.165Z,71.31
2017-07-14T02:45:09.283Z,71.78
2017-07-14T02:45:35.401Z,71.59
2017-07-14T02:46:01.535Z,72.03
2017-07-14T02:46:27.658Z,72.07
2017-07-14T02:46:53.785Z,71.94
2017-07-14T02:47:19.901Z,72.8
2017-07-14T02:47:46.024Z,72.32
2017-07-14T02:48:12.156Z,72.61
2017-07-14T02:48:38.275Z,72.61
2017-07-14T02:49:04.389Z,72.8
2017-07-14T02:49:30.527Z,73.28
2017-07-14T02:49:56.669Z,73.28
2017-07-14T02:50:22.784Z,73.09
2017-07-14T02:50:48.913Z,73.47
2017-07-14T02:51:15.061Z,73.57
2017-07-14T02:51:41.175Z,73.38
2017-07-14T02:52:07.305Z,73.76
2017-07-14T02:52:33.420Z,73.47
2017-07-14T02:52:59.553Z,73.76
2017-07-14T02:53:25.700Z,74.24
2017-07-14T02:53:51.816Z,74.43
2017-07-14T02:54:17.947Z,74.24
2017-07-14T02:54:44.071Z,74.24
2017-07-14T02:55:10.186Z,74.05
2017-07-14T02:55:36.314Z,74.15
2017-07-14T02:56:02.445Z,74.91
2017-07-14T02:56:28.558Z,74.05
2017-07-14T02:56:54.683Z,74.24
2017-07-14T02:57:20.814Z,74.43
2017-07-14T02:57:46.929Z,73.57
2017-07-14T02:58:13.057Z,73.57
2017-07-14T02:58:39.177Z,73.28
2017-07-14T02:59:05.301Z,73.47
2017-07-14T02:59:31.433Z,73.38
2017-07-14T02:59:57.545Z,73.38
2017-07-14T03:00:23.671Z,72.8
2017-07-14T03:00:49.804Z,72.8
2017-07-14T03:01:15.920Z,72.99
2017-07-14T03:01:42.042Z,72.61
2017-07-14T03:02:08.172Z,72.8
2017-07-14T03:02:34.290Z,72.8
2017-07-14T03:03:00.403Z,72.8
2017-07-14T03:03:26.531Z,73.47
2017-07-14T03:03:52.657Z,73.47
2017-07-14T03:04:18.789Z,73.47
2017-07-14T03:04:44.905Z,73.38
2017-07-14T03:05:11.027Z,73.47
2017-07-14T03:05:37.183Z,73.47
2017-07-14T03:06:03.302Z,74.4
2017-07-14T03:06:29.417Z,74.05
2017-07-14T03:06:55.553Z,74.43
2017-07-14T03:07:21.676Z,74.52
2017-07-14T03:07:47.792Z,74.97
2017-07-14T03:08:13.923Z,74.77
2017-07-14T03:08:40.048Z,74.01
2017-07-14T03:09:06.173Z,74.87
2017-07-14T03:09:32.293Z,74.3
2017-07-14T03:09:58.430Z,75.29
2017-07-14T03:10:24.565Z,74.43
2017-07-14T03:10:50.685Z,75.01
2017-07-14T03:11:16.800Z,74.82
2017-07-14T03:11:42.931Z,74.52
2017-07-14T03:12:09.056Z,74.52
2017-07-14T03:12:35.189Z,73.86
2017-07-14T03:13:01.319Z,73.95
2017-07-14T03:13:27.449Z,74.24
2017-07-14T03:13:53.563Z,74.24
2017-07-14T03:14:19.689Z,73.38
2017-07-14T03:14:45.823Z,73.76
2017-07-14T03:15:11.939Z,73.57
2017-07-14T03:15:38.061Z,73.38
2017-07-14T03:16:04.192Z,73.38
2017-07-14T03:16:30.312Z,73.76
2017-07-14T03:16:56.428Z,72.99
2017-07-14T03:17:22.564Z,73.09
2017-07-14T03:17:48.688Z,72.8
2017-07-14T03:18:14.804Z,72.99
2017-07-14T03:18:40.936Z,72.71
2017-07-14T03:19:07.061Z,72.99
2017-07-14T03:19:33.179Z,72.8
2017-07-14T03:19:59.307Z,72.42
2017-07-14T03:20:25.424Z,72.32
2017-07-14T03:20:51.559Z,72.61
2017-07-14T03:21:17.681Z,72.23
2017-07-14T03:21:43.797Z,72.64
2017-07-14T03:22:09.929Z,72.52
2017-07-14T03:22:36.054Z,72.23
2017-07-14T03:23:02.169Z,71.84
2017-07-14T03:23:28.294Z,72.32
2017-07-14T03:23:54.424Z,72.61
2017-07-14T03:24:20.555Z,72.74
2017-07-14T03:24:46.681Z,72.61
2017-07-14T03:25:12.812Z,72.36
2017-07-14T03:25:38.928Z,72.36
2017-07-14T03:26:05.057Z,71.84
2017-07-14T03:26:31.177Z,71.94
2017-07-14T03:26:57.301Z,72.32
2017-07-14T03:27:23.430Z,72.23
2017-07-14T03:27:49.543Z,72.13
2017-07-14T03:28:15.668Z,72.32
2017-07-14T03:28:41.799Z,72.13
2017-07-14T03:29:07.915Z,72.27
2017-07-14T03:29:34.037Z,72.61
2017-07-14T03:30:00.170Z,72.52
2017-07-14T03:30:26.288Z,72.61
2017-07-14T03:30:52.403Z,72.45
2017-07-14T03:31:18.632Z,71.84
2017-07-14T03:31:44.757Z,71.98
2017-07-14T03:32:10.888Z,72.07
2017-07-14T03:32:37.004Z,71.69
2017-07-14T03:33:03.126Z,72.36
2017-07-14T03:33:29.255Z,71.78
2017-07-14T03:33:55.375Z,71.4
2017-07-14T03:34:21.491Z,71.75
2017-07-14T03:34:47.628Z,71.75
2017-07-14T03:35:13.753Z,72.32
2017-07-14T03:35:39.868Z,72.61
2017-07-14T03:36:05.999Z,72.61
2017-07-14T03:36:32.124Z,72.99
2017-07-14T03:36:58.249Z,73.24
2017-07-14T03:37:24.366Z,73.44
2017-07-14T03:37:50.481Z,73.44
2017-07-14T03:38:16.615Z,73.54
2017-07-14T03:38:42.739Z,74.2
2017-07-14T03:39:08.855Z,74.01
2017-07-14T03:39:34.986Z,74.49
2017-07-14T03:40:01.110Z,74.49
2017-07-14T03:40:27.226Z,74.3
2017-07-14T03:40:53.377Z,74.58
2017-07-14T03:41:19.508Z,74.11
2017-07-14T03:41:45.621Z,74.77
2017-07-14T03:42:11.747Z,74.97
2017-07-14T03:42:37.866Z,74.97
2017-07-14T03:43:03.996Z,74.4
2017-07-14T03:43:30.122Z,75.07
2017-07-14T03:43:56.238Z,74.49
2017-07-14T03:44:22.367Z,74.3
2017-07-14T03:44:48.497Z,74.49
2017-07-14T03:45:14.608Z,74.4
2017-07-14T03:45:40.732Z,74.49
2017-07-14T03:46:06.863Z,74.01
2017-07-14T03:46:32.979Z,73.91
2017-07-14T03:46:59.102Z,74.05
2017-07-14T03:47:25.233Z,73.54
2017-07-14T03:47:51.357Z,73.66
2017-07-14T03:48:17.482Z,73.47
2017-07-14T03:48:43.595Z,73.47
2017-07-14T03:49:09.721Z,73.57
2017-07-14T03:49:35.853Z,73.47
2017-07-14T03:50:01.969Z,73.47
2017-07-14T03:50:28.092Z,73.66
2017-07-14T03:50:54.228Z,73.28
2017-07-14T03:51:20.343Z,73.47
2017-07-14T03:51:46.459Z,73.28
2017-07-14T03:52:12.597Z,72.9
2017-07-14T03:52:38.717Z,72.61
2017-07-14T03:53:04.833Z,72.9
2017-07-14T03:53:30.968Z,73.09
2017-07-14T03:53:57.086Z,72.8
2017-07-14T03:54:23.218Z,72.23
2017-07-14T03:54:49.338Z,72.52
2017-07-14T03:55:15.454Z,72.42
2017-07-14T03:55:41.590Z,72.8
2017-07-14T03:56:07.711Z,73.28
2017-07-14T03:56:33.824Z,73.28
2017-07-14T03:56:59.958Z,73.47
2017-07-14T03:57:26.084Z,73.34
2017-07-14T03:57:52.199Z,74.3
2017-07-14T03:58:18.328Z,74.4
2017-07-14T03:58:44.460Z,75.07
2017-07-14T03:59:10.573Z,74.97
2017-07-14T03:59:36.698Z,74.87
2017-07-14T04:00:02.831Z,75.64
2017-07-14T04:00:28.949Z,75.26
2017-07-14T04:00:55.091Z,75.16
2017-07-14T04:01:21.222Z,75.26
2017-07-14T04:01:47.345Z,74.87
2017-07-14T04:02:13.460Z,75.07
2017-07-14T04:02:39.596Z,74.58
2017-07-14T04:03:05.717Z,74.49
2017-07-14T04:03:31.831Z,74.68
2017-07-14T04:03:57.964Z,74.82
2017-07-14T04:04:24.113Z,74.52
2017-07-14T04:04:50.238Z,73.76
2017-07-14T04:05:16.356Z,74.05
2017-07-14T04:05:42.472Z,74.24
2017-07-14T04:06:08.607Z,73.57
2017-07-14T04:06:34.730Z,73.38
2017-07-14T04:07:00.844Z,73.38
2017-07-14T04:07:26.974Z,73.57
2017-07-14T04:07:53.099Z,74.4
2017-07-14T04:08:19.215Z,74.01
2017-07-14T04:08:45.342Z,74.68
2017-07-14T04:09:11.473Z,75.07
2017-07-14T04:09:37.585Z,74.77
2017-07-14T04:10:03.711Z,74.97
2017-07-14T04:10:29.832Z,74.97
2017-07-14T04:10:55.962Z,74.68
2017-07-14T04:11:22.087Z,74.68
2017-07-14T04:11:48.203Z,74.97
2017-07-14T04:12:14.330Z,74.2
2017-07-14T04:12:40.463Z,75.01
2017-07-14T04:13:06.577Z,74.52
2017-07-14T04:13:32.701Z,73.95
2017-07-14T04:13:58.832Z,74.24
2017-07-14T04:14:24.967Z,74.43
2017-07-14T04:14:51.091Z,73.47
2017-07-14T04:15:17.219Z,73.57
2017-07-14T04:15:43.338Z,73.47
2017-07-14T04:16:09.469Z,73.66
2017-07-14T04:16:35.581Z,73.47
2017-07-14T04:17:01.705Z,73.47
2017-07-14T04:17:27.835Z,73.38
2017-07-14T04:17:53.949Z,73.19
2017-07-14T04:18:20.069Z,73.19
2017-07-14T04:18:46.199Z,73.38
2017-07-14T04:19:12.320Z,73.28
2017-07-14T04:19:38.436Z,72.71
2017-07-14T04:20:04.572Z,72.71
2017-07-14T04:20:30.693Z,72.8
2017-07-14T04:20:56.807Z,72.42
2017-07-14T04:21:22.941Z,72.52
2017-07-14T04:21:49.061Z,72.52
2017-07-14T04:22:15.192Z,72.42
2017-07-14T04:22:41.311Z,72.42
2017-07-14T04:23:07.427Z,72.23
2017-07-14T04:23:33.562Z,72.23
2017-07-14T04:23:59.707Z,72.52
2017-07-14T04:24:25.823Z,72.61
2017-07-14T04:24:51.955Z,72.27
2017-07-14T04:25:18.080Z,72.52
2017-07-14T04:25:44.197Z,72.42
2017-07-14T04:26:10.326Z,72.52
2017-07-14T04:26:36.458Z,72.61
2017-07-14T04:27:02.576Z,72.23
2017-07-14T04:27:28.699Z,72.32
2017-07-14T04:27:54.814Z,72.42
2017-07-14T04:28:20.945Z,72.8
2017-07-14T04:28:47.096Z,71.84
2017-07-14T04:29:13.213Z,72.61
2017-07-14T04:29:39.341Z,71.78
2017-07-14T04:30:05.474Z,72.27
2017-07-14T04:30:31.626Z,72.61
2017-07-14T04:30:57.749Z,72.52
2017-07-14T04:31:23.880Z,72.32
2017-07-14T04:31:49.995Z,72.13
2017-07-14T04:32:16.118Z,72.52
2017-07-14T04:32:42.239Z,73.09
2017-07-14T04:33:08.366Z,72.9
2017-07-14T04:33:34.501Z,72.8
2017-07-14T04:34:00.631Z,72.61
2017-07-14T04:34:26.758Z,72.8
2017-07-14T04:34:52.890Z,73.28
2017-07-14T04:35:19.008Z,73.28
2017-07-14T04:35:45.127Z,73.47
2017-07-14T04:36:11.260Z,73.47
2017-07-14T04:36:37.380Z,73.38
2017-07-14T04:37:03.493Z,73.19
2017-07-14T04:37:29.627Z,73.09
2017-07-14T04:37:55.749Z,72.8
2017-07-14T04:38:21.882Z,72.8
2017-07-14T04:38:47.996Z,72.32
2017-07-14T04:39:14.115Z,72.52
2017-07-14T04:39:40.247Z,72.13
2017-07-14T04:40:06.369Z,72.55
2017-07-14T04:40:32.484Z,72.55
2017-07-14T04:40:58.620Z,72.36
2017-07-14T04:41:24.761Z,72.55
2017-07-14T04:41:50.858Z,72.36
2017-07-14T04:42:16.990Z,71.4
2017-07-14T04:42:43.114Z,71.37
2017-07-14T04:43:09.229Z,72.03
2017-07-14T04:43:35.359Z,72.52
2017-07-14T04:44:01.493Z,72.42
2017-07-14T04:44:27.605Z,72.61
2017-07-14T04:44:53.730Z,72.23
2017-07-14T04:45:19.861Z,72.32
2017-07-14T04:45:45.981Z,72.61
2017-07-14T04:46:12.099Z,72.32
2017-07-14T04:46:38.230Z,72.32
2017-07-14T04:47:04.348Z,72.8
2017-07-14T04:47:30.483Z,72.61
2017-07-14T04:47:56.618Z,72.9
2017-07-14T04:48:22.741Z,72.13
2017-07-14T04:48:48.857Z,72.52
2017-07-14T04:49:14.988Z,71.94
2017-07-14T04:49:41.108Z,71.78
2017-07-14T04:50:07.241Z,72.36
2017-07-14T04:50:33.363Z,72.27
2017-07-14T04:50:59.480Z,71.78
2017-07-14T04:51:25.617Z,71.69
2017-07-14T04:51:51.738Z,71.69
2017-07-14T04:52:17.851Z,71.59
2017-07-14T04:52:43.986Z,71.72
2017-07-14T04:53:10.111Z,70.86
2017-07-14T04:53:36.229Z,69.9
2017-07-14T04:54:02.357Z,69.84
2017-07-14T04:54:28.490Z,69.17
2017-07-14T04:54:54.608Z,68.91
2017-07-14T04:55:20.731Z,67.47
2017-07-14T04:55:46.847Z,66.55
2017-07-14T04:56:12.977Z,65.11
2017-07-14T04:56:39.100Z,64.76
2017-07-14T04:57:05.216Z,64.31
2017-07-14T04:57:31.345Z,62.96
2017-07-14T04:57:57.477Z,62.41
2017-07-14T04:58:23.590Z,60.97
2017-07-14T04:58:49.717Z,60.52
2017-07-14T04:59:15.845Z,59.82
2017-07-14T04:59:41.962Z,59.82
2017-07-14T05:00:08.085Z,59.44
2017-07-14T05:00:34.207Z,60.11
2017-07-14T05:01:00.334Z,59.72
2017-07-14T05:01:26.466Z,60.01
2017-07-14T05:01:52.578Z,60.49
2017-07-14T05:02:18.708Z,60.94
2017-07-14T05:02:44.861Z,61.23
2017-07-14T05:03:10.977Z,61.14
2017-07-14T05:03:37.101Z,61.36
2017-07-14T05:04:03.235Z,60.88
2017-07-14T05:04:29.355Z,60.39
2017-07-14T05:04:55.471Z,60.78
2017-07-14T05:05:21.607Z,60.75
2017-07-14T05:05:47.731Z,61.23
2017-07-14T05:06:13.860Z,60.85
2017-07-14T05:06:39.976Z,61.23
2017-07-14T05:07:06.097Z,61.43
2017-07-14T05:07:32.228Z,60.94
2017-07-14T05:07:58.348Z,60.78
2017-07-14T05:08:24.464Z,60.78
2017-07-14T05:08:50.598Z,60.17
2017-07-14T05:09:16.723Z,60.37
2017-07-14T05:09:42.839Z,60.59
2017-07-14T05:10:08.971Z,60.21
2017-07-14T05:10:35.102Z,60.66
2017-07-14T05:11:01.217Z,60.85
2017-07-14T05:11:27.346Z,61.33
2017-07-14T05:11:53.487Z,61.33
2017-07-14T05:12:19.622Z,61.14
2017-07-14T05:12:45.745Z,61.33
2017-07-14T05:13:11.861Z,61.33
2017-07-14T05:13:38.012Z,61.04
2017-07-14T05:14:04.137Z,61.43
2017-07-14T05:14:30.253Z,60.94
2017-07-14T05:14:56.382Z,61.43
2017-07-14T05:15:22.513Z,60.94
2017-07-14T05:15:48.626Z,61.14
2017-07-14T05:16:14.753Z,61.01
2017-07-14T05:16:40.890Z,61.97
2017-07-14T05:17:07.003Z,62.16
2017-07-14T05:17:33.135Z,62.81
2017-07-14T05:17:59.247Z,63.48
2017-07-14T05:18:25.377Z,64.05
2017-07-14T05:18:51.507Z,63.96
2017-07-14T05:19:17.619Z,64.15
2017-07-14T05:19:43.745Z,63.96
2017-07-14T05:20:09.880Z,63.86
2017-07-14T05:20:35.992Z,64.05
2017-07-14T05:21:02.116Z,63.96
2017-07-14T05:21:28.249Z,64.05
2017-07-14T05:21:54.370Z,64.05
2017-07-14T05:22:20.486Z,63.96
2017-07-14T05:22:46.615Z,63.96
2017-07-14T05:23:12.741Z,63.96
2017-07-14T05:23:38.876Z,64.53
2017-07-14T05:24:04.990Z,64.15
2017-07-14T05:24:31.112Z,64.05
2017-07-14T05:24:57.240Z,64.43
2017-07-14T05:25:23.359Z,63.96
2017-07-14T05:25:49.473Z,63.86
2017-07-14T05:26:15.612Z,63.96
2017-07-14T05:26:41.757Z,63.96
2017-07-14T05:27:07.873Z,64.53
2017-07-14T05:27:34.007Z,64.43
2017-07-14T05:28:00.131Z,65.27
2017-07-14T05:28:26.249Z,65.27
2017-07-14T05:28:52.398Z,64.69
2017-07-14T05:29:18.532Z,64.59
2017-07-14T05:29:44.646Z,65.27
2017-07-14T05:30:10.772Z,65.46
2017-07-14T05:30:36.905Z,65.46
2017-07-14T05:31:03.022Z,65.08
2017-07-14T05:31:29.145Z,65.36
2017-07-14T05:31:55.278Z,64.98
2017-07-14T05:32:21.397Z,64.98
2017-07-14T05:32:47.513Z,65.46
2017-07-14T05:33:13.649Z,65.08
2017-07-14T05:33:39.771Z,64.79
2017-07-14T05:34:05.917Z,65.17
2017-07-14T05:34:32.034Z,64.79
2017-07-14T05:34:58.155Z,64.4
2017-07-14T05:35:24.286Z,64.89
2017-07-14T05:35:50.406Z,64.98
2017-07-14T05:36:16.521Z,64.98
2017-07-14T05:36:42.656Z,65.36
2017-07-14T05:37:08.778Z,65.75
2017-07-14T05:37:34.895Z,65.08
2017-07-14T05:38:01.027Z,65.27